Terminal Aerodrome Forecast
Issued by NWS

Home | Current Version | Previous Version | Text Only | Print | Product List | Glossary On
Versions: 1 2 3 4 5 6 7 8 9 10 11 12 13 14 15
000
FTUS46 KOTX 182320
TAFMWH
TAF
KMWH 182320Z 1900/1924 26010KT P6SM BKN200
     FM190600 01004KT P6SM FEW100 BKN200
     FM192200 22015G28KT P6SM SCT080 BKN100 OVC200=

USA.gov is the U.S. government's official web portal to all federal, state and local government web resources and services.